Terminal Aerodrome Forecast
Issued by NWS Paducah, KY

Home | Current Version | Previous Version | Text Only | Print | Product List | Glossary On
Versions: 1 2 3 4 5 6 7 8 9 10 11 12 13 14 15 16
000
FTUS43 KPAH 261100
TAFEVV
TAF
KEVV 261128Z 2612/2712 06003KT P6SM SCT200
     FM261700 11005KT P6SM BKN100
     FM262000 09003KT 6SM -RA BR OVC025
     FM262300 04005KT 3SM -RASN BR OVC015
     FM270100 01004KT 4SM -SN BR OVC012
     FM270700 31005KT 5SM BR OVC015=

USA.gov is the U.S. government's official web portal to all federal, state and local government web resources and services.